createdAt,value
2023-01-06T00:03:27.163Z,94563.00
2023-01-06T00:07:30.650Z,94557.00
2023-01-06T00:11:33.341Z,94567.00
2023-01-06T00:15:37.751Z,94566.00
2023-01-06T00:19:39.927Z,94569.00
2023-01-06T00:23:42.725Z,94556.00
2023-01-06T00:27:44.848Z,94563.00
2023-01-06T00:31:49.148Z,94551.00
2023-01-06T00:35:51.754Z,94567.00
2023-01-06T00:40:00.071Z,94566.00
2023-01-06T00:44:02.605Z,94562.00
2023-01-06T00:48:33.045Z,94564.00
2023-01-06T00:52:35.500Z,94574.00
2023-01-06T00:56:44.516Z,94565.00
2023-01-06T01:00:47.511Z,94564.00
2023-01-06T01:04:50.906Z,94570.00
2023-01-06T01:08:54.874Z,94573.00
2023-01-06T01:13:01.115Z,94579.00
2023-01-06T01:17:03.622Z,94594.00
2023-01-06T01:21:56.565Z,94587.00
2023-01-06T01:25:58.736Z,94580.00
2023-01-06T01:30:00.889Z,94575.00
2023-01-06T01:34:05.476Z,94578.00
2023-01-06T01:38:07.616Z,94574.00
2023-01-06T01:42:18.348Z,94594.00
2023-01-06T01:46:46.683Z,94590.00
2023-01-06T01:51:42.723Z,94589.00
2023-01-06T01:55:45.303Z,94587.00
2023-01-06T02:00:13.964Z,94582.00
2023-01-06T02:04:18.309Z,94578.00
2023-01-06T02:08:51.766Z,94584.00
2023-01-06T02:12:58.944Z,94584.00
2023-01-06T02:17:22.004Z,94579.00
2023-01-06T02:22:03.717Z,94579.00
2023-01-06T02:26:46.682Z,94589.00
2023-01-06T02:31:27.897Z,94573.00
2023-01-06T02:35:45.356Z,94595.00
2023-01-06T02:40:16.645Z,94592.00
2023-01-06T02:44:44.914Z,94583.00
2023-01-06T02:49:24.706Z,94595.00
2023-01-06T02:53:52.231Z,94580.00
2023-01-06T02:58:25.891Z,94587.00
2023-01-06T03:02:31.247Z,94585.00
2023-01-06T03:07:02.524Z,94567.00
2023-01-06T03:11:05.690Z,94565.00
2023-01-06T03:15:10.940Z,94562.00
2023-01-06T03:19:19.001Z,94565.00
2023-01-06T03:23:22.849Z,94564.00
2023-01-06T03:27:27.048Z,94564.00
2023-01-06T03:31:43.070Z,94571.00
2023-01-06T03:36:15.776Z,94565.00
2023-01-06T03:40:24.243Z,94565.00
2023-01-06T03:45:02.923Z,94562.00
2023-01-06T03:49:11.271Z,94553.00
2023-01-06T03:53:39.725Z,94550.00
2023-01-06T03:57:56.543Z,94559.00
2023-01-06T04:01:59.774Z,94542.00
2023-01-06T04:07:18.121Z,94552.00
2023-01-06T04:16:54.712Z,94558.00
2023-01-06T04:21:23.634Z,94558.00
2023-01-06T04:25:27.111Z,94550.00
2023-01-06T04:29:29.325Z,94541.00
2023-01-06T04:33:34.884Z,94544.00
2023-01-06T04:37:39.914Z,94545.00
2023-01-06T04:41:42.276Z,94551.00
2023-01-06T04:45:45.126Z,94525.00
2023-01-06T04:49:47.249Z,94542.00
2023-01-06T04:53:53.021Z,94531.00
2023-01-06T04:57:55.235Z,94536.00
2023-01-06T05:02:22.793Z,94536.00
2023-01-06T05:06:25.019Z,94545.00
2023-01-06T05:13:39.521Z,94552.00
2023-01-06T05:17:48.127Z,94557.00
2023-01-06T05:21:51.437Z,94551.00
2023-01-06T05:26:01.177Z,94556.00
2023-01-06T05:30:07.089Z,94562.00
2023-01-06T05:34:12.165Z,94557.00
2023-01-06T05:38:40.549Z,94564.00
2023-01-06T05:42:43.823Z,94573.00
2023-01-06T05:46:50.787Z,94572.00
2023-01-06T05:50:54.134Z,94570.00
2023-01-06T05:55:01.794Z,94580.00
2023-01-06T05:59:05.170Z,94587.00
2023-01-06T06:03:11.004Z,94583.00
2023-01-06T06:07:14.381Z,94578.00
2023-01-06T06:11:20.048Z,94569.00
2023-01-06T06:15:23.332Z,94577.00
2023-01-06T06:19:53.058Z,94574.00
2023-01-06T06:23:57.566Z,94580.00
2023-01-06T06:28:01.229Z,94562.00
2023-01-06T06:32:31.573Z,94577.00
2023-01-06T06:36:36.299Z,94570.00
2023-01-06T06:40:44.587Z,94562.00
2023-01-06T06:44:47.837Z,94565.00
2023-01-06T06:49:10.652Z,94554.00
2023-01-06T06:53:15.321Z,94560.00
2023-01-06T06:57:18.726Z,94557.00
2023-01-06T07:01:22.470Z,94554.00
2023-01-06T07:05:27.979Z,94563.00
2023-01-06T07:09:32.735Z,94555.00
2023-01-06T07:13:36.103Z,94563.00
2023-01-06T07:18:33.172Z,94572.00
2023-01-06T07:22:38.954Z,94567.00
2023-01-06T07:26:43.924Z,94573.00
2023-01-06T07:30:47.757Z,94582.00
2023-01-06T07:34:51.333Z,94568.00
2023-01-06T07:38:54.588Z,94575.00
2023-01-06T07:43:06.651Z,94573.00
2023-01-06T07:47:10.642Z,94570.00
2023-01-06T07:51:14.283Z,94570.00
2023-01-06T07:55:17.747Z,94567.00
2023-01-06T07:59:22.661Z,94577.00
2023-01-06T08:03:26.177Z,94576.00
2023-01-06T08:07:30.776Z,94573.00
2023-01-06T08:11:37.936Z,94570.00
2023-01-06T08:15:43.008Z,94575.00
2023-01-06T08:19:50.495Z,94571.00
2023-01-06T08:23:53.855Z,94579.00
2023-01-06T08:28:00.058Z,94567.00
2023-01-06T08:32:10.829Z,94577.00
2023-01-06T08:36:19.459Z,94573.00
2023-01-06T08:40:22.814Z,94571.00
2023-01-06T08:44:36.794Z,94563.00
2023-01-06T08:48:41.808Z,94576.00
2023-01-06T08:53:03.778Z,94577.00
2023-01-06T08:57:09.173Z,94578.00
2023-01-06T09:01:21.280Z,94577.00
2023-01-06T09:05:26.131Z,94578.00
2023-01-06T09:09:29.593Z,94571.00
2023-01-06T09:13:32.944Z,94588.00
2023-01-06T09:17:36.305Z,94596.00
2023-01-06T09:21:43.034Z,94590.00
2023-01-06T09:25:47.606Z,94594.00
2023-01-06T09:30:41.132Z,94597.00
2023-01-06T09:34:44.544Z,94599.00
2023-01-06T09:39:19.541Z,94600.00
2023-01-06T09:43:39.137Z,94596.00
2023-01-06T09:47:45.730Z,94596.00
2023-01-06T09:51:51.477Z,94591.00
2023-01-06T09:56:01.389Z,94587.00
2023-01-06T10:00:08.251Z,94579.00
2023-01-06T10:04:26.060Z,94570.00
2023-01-06T10:08:40.936Z,94580.00
2023-01-06T10:13:27.503Z,94570.00
2023-01-06T10:17:52.157Z,94568.00
2023-01-06T10:22:09.882Z,94566.00
2023-01-06T10:26:15.050Z,94543.00
2023-01-06T10:30:46.606Z,94542.00
2023-01-06T10:34:52.125Z,94543.00
2023-01-06T10:38:57.098Z,94540.00
2023-01-06T10:43:03.996Z,94530.00
2023-01-06T10:47:19.497Z,94517.00
2023-01-06T10:51:44.496Z,94517.00
2023-01-06T10:55:51.033Z,94508.00
2023-01-06T11:00:26.848Z,94513.00
2023-01-06T11:05:20.042Z,94504.00
2023-01-06T11:09:33.219Z,94494.00
2023-01-06T11:13:38.964Z,94501.00
2023-01-06T11:17:47.445Z,94495.00
2023-01-06T11:21:50.909Z,94481.00
2023-01-06T11:26:04.970Z,94489.00
2023-01-06T11:30:23.100Z,94494.00
2023-01-06T11:34:29.192Z,94488.00
2023-01-06T11:38:32.816Z,94485.00
2023-01-06T11:46:51.846Z,94485.00
2023-01-06T11:50:58.395Z,94490.00
2023-01-06T11:55:20.389Z,94487.00
2023-01-06T11:59:27.063Z,94480.00
2023-01-06T12:03:36.679Z,94479.00
2023-01-06T12:07:44.600Z,94481.00
2023-01-06T12:11:51.343Z,94473.00
2023-01-06T12:16:07.238Z,94466.00
2023-01-06T12:25:01.502Z,94453.00
2023-01-06T12:29:27.258Z,94455.00
2023-01-06T12:38:43.357Z,94461.00
2023-01-06T12:42:58.909Z,94435.00
2023-01-06T12:47:18.356Z,94454.00
2023-01-06T12:51:55.562Z,94449.00
2023-01-06T12:56:19.466Z,94455.00
2023-01-06T13:00:38.754Z,94429.00
2023-01-06T13:04:54.297Z,94433.00
2023-01-06T13:09:17.952Z,94440.00
2023-01-06T13:13:47.364Z,94440.00
2023-01-06T13:18:03.866Z,94424.00
2023-01-06T13:22:12.899Z,94427.00
2023-01-06T13:26:48.251Z,94419.00
2023-01-06T13:31:26.274Z,94428.00
2023-01-06T13:35:39.638Z,94418.00
2023-01-06T13:39:46.079Z,94424.00
2023-01-06T13:43:57.020Z,94432.00
2023-01-06T13:48:09.467Z,94420.00
2023-01-06T13:52:22.144Z,94435.00
2023-01-06T13:56:28.017Z,94441.00
2023-01-06T14:01:06.364Z,94442.00
2023-01-06T14:05:48.532Z,94437.00
2023-01-06T14:09:54.295Z,94443.00
2023-01-06T14:13:59.615Z,94436.00
2023-01-06T14:18:32.441Z,94441.00
2023-01-06T14:22:35.863Z,94443.00
2023-01-06T14:27:00.561Z,94438.00
2023-01-06T14:31:42.681Z,94454.00
2023-01-06T14:35:48.119Z,94447.00
2023-01-06T14:39:56.139Z,94443.00
2023-01-06T14:44:03.518Z,94446.00
2023-01-06T14:48:11.429Z,94448.00
2023-01-06T14:52:31.161Z,94454.00
2023-01-06T14:56:35.033Z,94464.00
2023-01-06T15:00:53.796Z,94463.00
2023-01-06T15:04:57.615Z,94464.00
2023-01-06T15:09:34.687Z,94452.00
2023-01-06T15:13:38.138Z,94437.00
2023-01-06T15:17:41.789Z,94426.00
2023-01-06T15:22:36.211Z,94435.00
2023-01-06T15:26:42.440Z,94441.00
2023-01-06T15:30:51.109Z,94429.00
2023-01-06T15:34:58.292Z,94437.00
2023-01-06T15:39:03.743Z,94448.00
2023-01-06T15:43:10.191Z,94450.00
2023-01-06T15:47:28.845Z,94454.00
2023-01-06T15:51:32.334Z,94454.00
2023-01-06T15:55:37.927Z,94463.00
2023-01-06T15:59:43.638Z,94466.00
2023-01-06T16:03:49.016Z,94454.00
2023-01-06T16:07:52.401Z,94471.00
2023-01-06T16:12:11.574Z,94469.00
2023-01-06T16:16:33.062Z,94459.00
2023-01-06T16:20:36.496Z,94473.00
2023-01-06T16:24:56.868Z,94476.00
2023-01-06T16:29:02.001Z,94487.00
2023-01-06T16:33:35.442Z,94489.00
2023-01-06T16:37:43.585Z,94484.00
2023-01-06T16:42:42.490Z,94455.00
2023-01-06T16:46:46.042Z,94484.00
2023-01-06T16:51:02.210Z,94480.00
2023-01-06T16:55:13.703Z,94488.00
2023-01-06T16:59:19.882Z,94497.00
2023-01-06T17:03:25.996Z,94487.00
2023-01-06T17:07:32.452Z,94491.00
2023-01-06T17:11:38.283Z,94494.00
2023-01-06T17:15:42.416Z,94498.00
2023-01-06T17:19:45.885Z,94475.00
2023-01-06T17:24:27.530Z,94481.00
2023-01-06T17:28:33.655Z,94486.00
2023-01-06T17:32:43.377Z,94473.00
2023-01-06T17:36:48.722Z,94461.00
2023-01-06T17:40:54.921Z,94476.00
2023-01-06T17:45:01.314Z,94474.00
2023-01-06T17:49:32.245Z,94478.00
2023-01-06T17:54:20.723Z,94493.00
2023-01-06T17:58:29.468Z,94492.00
2023-01-06T18:02:44.184Z,94493.00
2023-01-06T18:06:55.006Z,94493.00
2023-01-06T18:11:29.962Z,94502.00
2023-01-06T18:15:35.687Z,94498.00
2023-01-06T18:19:40.696Z,94500.00
2023-01-06T18:23:46.251Z,94503.00
2023-01-06T18:28:18.874Z,94508.00
2023-01-06T18:32:28.740Z,94521.00
2023-01-06T18:36:35.463Z,94525.00
2023-01-06T18:40:41.259Z,94514.00
2023-01-06T18:44:50.027Z,94526.00
2023-01-06T18:48:56.046Z,94532.00
2023-01-06T18:53:02.297Z,94537.00
2023-01-06T18:57:13.453Z,94539.00
2023-01-06T19:01:20.329Z,94544.00
2023-01-06T19:05:25.015Z,94545.00
2023-01-06T19:09:41.818Z,94544.00
2023-01-06T19:14:16.774Z,94545.00
2023-01-06T19:18:20.758Z,94537.00
2023-01-06T19:22:29.766Z,94540.00
2023-01-06T19:26:42.894Z,94545.00
2023-01-06T19:30:49.318Z,94543.00
2023-01-06T19:35:43.002Z,94542.00
2023-01-06T19:39:48.884Z,94546.00
2023-01-06T19:43:59.974Z,94542.00
2023-01-06T19:48:07.694Z,94550.00
2023-01-06T19:52:30.418Z,94558.00
2023-01-06T19:56:36.536Z,94556.00
2023-01-06T20:01:03.050Z,94562.00
2023-01-06T20:05:47.745Z,94562.00
2023-01-06T20:09:58.225Z,94565.00
2023-01-06T20:14:01.601Z,94567.00
2023-01-06T20:18:06.435Z,94563.00
2023-01-06T20:22:16.176Z,94569.00
2023-01-06T20:26:19.460Z,94564.00
2023-01-06T20:30:22.884Z,94573.00
2023-01-06T20:34:32.118Z,94566.00
2023-01-06T20:38:35.478Z,94576.00
2023-01-06T20:42:38.910Z,94567.00
2023-01-06T20:52:13.782Z,94577.00
2023-01-06T20:56:20.962Z,94586.00
2023-01-06T21:00:24.322Z,94591.00
2023-01-06T21:09:10.185Z,94583.00
2023-01-06T21:13:13.964Z,94588.00
2023-01-06T21:17:17.851Z,94590.00
2023-01-06T21:21:37.916Z,94576.00
2023-01-06T21:26:00.797Z,94590.00
2023-01-06T21:30:23.202Z,94584.00
2023-01-06T21:34:31.267Z,94592.00
2023-01-06T21:38:41.437Z,94583.00
2023-01-06T21:43:10.058Z,94579.00
2023-01-06T21:47:26.848Z,94583.00
2023-01-06T21:51:42.723Z,94591.00
2023-01-06T21:55:54.929Z,94588.00
2023-01-06T22:00:01.227Z,94601.00
2023-01-06T22:04:09.325Z,94595.00
2023-01-06T22:08:19.896Z,94581.00
2023-01-06T22:12:26.722Z,94576.00
2023-01-06T22:16:33.499Z,94598.00
2023-01-06T22:20:52.631Z,94589.00
2023-01-06T22:25:03.339Z,94584.00
2023-01-06T22:29:14.864Z,94586.00
2023-01-06T22:33:22.567Z,94599.00
2023-01-06T22:37:28.858Z,94605.00
2023-01-06T22:41:33.033Z,94596.00
2023-01-06T22:45:41.128Z,94603.00
2023-01-06T22:49:48.973Z,94600.00
2023-01-06T22:53:57.338Z,94599.00
2023-01-06T22:58:02.469Z,94611.00
2023-01-06T23:02:06.561Z,94613.00
2023-01-06T23:06:14.112Z,94595.00
2023-01-06T23:10:17.588Z,94604.00
2023-01-06T23:14:21.195Z,94611.00
2023-01-06T23:18:24.637Z,94604.00
2023-01-06T23:22:30.387Z,94604.00
2023-01-06T23:26:35.864Z,94586.00
2023-01-06T23:30:39.574Z,94607.00
2023-01-06T23:34:43.374Z,94589.00
2023-01-06T23:38:48.865Z,94610.00
2023-01-06T23:42:54.217Z,94602.00
2023-01-06T23:46:57.815Z,94604.00
2023-01-06T23:51:02.046Z,94587.00
2023-01-06T23:55:07.949Z,94588.00
2023-01-06T23:59:13.573Z,94578.00
